sensor_id;sensor_type;location;lat;lon;timestamp;P1;durP1;ratioP1;P2;durP2;ratioP2
30553;SDS011;17335;50.720;7.452;2022-12-18T00:01:12;23.77;;;9.82;;
30553;SDS011;17335;50.720;7.452;2022-12-18T00:03:44;23.88;;;10.20;;
30553;SDS011;17335;50.720;7.452;2022-12-18T00:06:12;27.88;;;11.15;;
30553;SDS011;17335;50.720;7.452;2022-12-18T00:08:40;26.48;;;10.20;;
30553;SDS011;17335;50.720;7.452;2022-12-18T00:11:07;43.35;;;11.90;;
30553;SDS011;17335;50.720;7.452;2022-12-18T00:13:36;28.58;;;10.35;;
30553;SDS011;17335;50.720;7.452;2022-12-18T00:16:04;26.10;;;10.05;;
30553;SDS011;17335;50.720;7.452;2022-12-18T00:18:32;23.85;;;9.02;;
30553;SDS011;17335;50.720;7.452;2022-12-18T00:20:59;25.10;;;9.30;;
30553;SDS011;17335;50.720;7.452;2022-12-18T00:23:27;26.40;;;10.73;;
30553;SDS011;17335;50.720;7.452;2022-12-18T00:25:54;26.92;;;10.10;;
30553;SDS011;17335;50.720;7.452;2022-12-18T00:28:24;28.75;;;9.52;;
30553;SDS011;17335;50.720;7.452;2022-12-18T00:30:50;23.17;;;9.52;;
30553;SDS011;17335;50.720;7.452;2022-12-18T00:33:17;23.88;;;8.65;;
30553;SDS011;17335;50.720;7.452;2022-12-18T00:35:44;21.83;;;8.65;;
30553;SDS011;17335;50.720;7.452;2022-12-18T00:38:10;19.35;;;7.63;;
30553;SDS011;17335;50.720;7.452;2022-12-18T00:40:36;26.50;;;9.75;;
30553;SDS011;17335;50.720;7.452;2022-12-18T00:43:03;23.73;;;7.95;;
30553;SDS011;17335;50.720;7.452;2022-12-18T00:45:29;20.52;;;8.90;;
30553;SDS011;17335;50.720;7.452;2022-12-18T00:47:57;18.42;;;8.18;;
30553;SDS011;17335;50.720;7.452;2022-12-18T00:50:24;20.25;;;7.28;;
30553;SDS011;17335;50.720;7.452;2022-12-18T00:52:51;17.25;;;7.20;;
30553;SDS011;17335;50.720;7.452;2022-12-18T00:55:18;24.58;;;9.48;;
30553;SDS011;17335;50.720;7.452;2022-12-18T00:57:44;23.35;;;8.38;;
30553;SDS011;17335;50.720;7.452;2022-12-18T01:00:12;21.42;;;8.52;;
30553;SDS011;17335;50.720;7.452;2022-12-18T01:02:39;21.70;;;8.70;;
30553;SDS011;17335;50.720;7.452;2022-12-18T01:05:08;18.30;;;7.88;;
30553;SDS011;17335;50.720;7.452;2022-12-18T01:07:35;17.63;;;7.60;;
30553;SDS011;17335;50.720;7.452;2022-12-18T01:10:02;18.92;;;7.88;;
30553;SDS011;17335;50.720;7.452;2022-12-18T01:12:30;18.17;;;7.82;;
30553;SDS011;17335;50.720;7.452;2022-12-18T01:14:56;19.95;;;9.32;;
30553;SDS011;17335;50.720;7.452;2022-12-18T01:17:23;23.38;;;9.13;;
30553;SDS011;17335;50.720;7.452;2022-12-18T01:19:50;18.30;;;7.38;;
30553;SDS011;17335;50.720;7.452;2022-12-18T01:22:16;15.75;;;7.35;;
30553;SDS011;17335;50.720;7.452;2022-12-18T01:24:43;18.92;;;7.55;;
30553;SDS011;17335;50.720;7.452;2022-12-18T01:27:09;17.75;;;7.43;;
30553;SDS011;17335;50.720;7.452;2022-12-18T01:29:36;21.52;;;8.82;;
30553;SDS011;17335;50.720;7.452;2022-12-18T01:32:02;19.40;;;8.48;;
30553;SDS011;17335;50.720;7.452;2022-12-18T01:34:28;16.38;;;7.60;;
30553;SDS011;17335;50.720;7.452;2022-12-18T01:36:55;14.73;;;7.80;;
30553;SDS011;17335;50.720;7.452;2022-12-18T01:39:21;19.85;;;8.00;;
30553;SDS011;17335;50.720;7.452;2022-12-18T01:41:48;21.30;;;8.88;;
30553;SDS011;17335;50.720;7.452;2022-12-18T01:47:36;27.08;;;8.48;;
30553;SDS011;17335;50.720;7.452;2022-12-18T01:50:13;18.52;;;8.45;;
30553;SDS011;17335;50.720;7.452;2022-12-18T01:52:47;19.05;;;7.43;;
30553;SDS011;17335;50.720;7.452;2022-12-18T01:55:20;22.33;;;8.10;;
30553;SDS011;17335;50.720;7.452;2022-12-18T01:57:49;23.17;;;7.68;;
30553;SDS011;17335;50.720;7.452;2022-12-18T02:00:20;21.02;;;8.35;;
30553;SDS011;17335;50.720;7.452;2022-12-18T02:02:47;17.65;;;7.50;;
30553;SDS011;17335;50.720;7.452;2022-12-18T02:05:16;18.77;;;7.32;;
30553;SDS011;17335;50.720;7.452;2022-12-18T02:10:52;21.55;;;7.65;;
30553;SDS011;17335;50.720;7.452;2022-12-18T02:13:41;20.38;;;9.02;;
30553;SDS011;17335;50.720;7.452;2022-12-18T02:19:06;19.77;;;8.40;;
30553;SDS011;17335;50.720;7.452;2022-12-18T02:27:30;23.60;;;8.95;;
30553;SDS011;17335;50.720;7.452;2022-12-18T02:29:58;19.30;;;7.82;;
30553;SDS011;17335;50.720;7.452;2022-12-18T02:32:28;23.38;;;8.85;;
30553;SDS011;17335;50.720;7.452;2022-12-18T02:34:59;21.08;;;9.25;;
30553;SDS011;17335;50.720;7.452;2022-12-18T02:37:29;27.20;;;10.45;;
30553;SDS011;17335;50.720;7.452;2022-12-18T02:39:58;27.42;;;8.68;;
30553;SDS011;17335;50.720;7.452;2022-12-18T02:42:25;23.05;;;9.00;;
30553;SDS011;17335;50.720;7.452;2022-12-18T02:44:57;23.10;;;8.98;;
30553;SDS011;17335;50.720;7.452;2022-12-18T02:47:30;28.27;;;11.48;;
30553;SDS011;17335;50.720;7.452;2022-12-18T03:03:51;24.00;;;9.70;;
30553;SDS011;17335;50.720;7.452;2022-12-18T03:06:24;25.40;;;9.52;;
30553;SDS011;17335;50.720;7.452;2022-12-18T03:08:56;27.88;;;10.40;;
30553;SDS011;17335;50.720;7.452;2022-12-18T03:11:26;23.88;;;9.57;;
30553;SDS011;17335;50.720;7.452;2022-12-18T03:14:14;29.92;;;10.93;;
30553;SDS011;17335;50.720;7.452;2022-12-18T03:16:43;28.90;;;10.07;;
30553;SDS011;17335;50.720;7.452;2022-12-18T03:19:14;33.58;;;10.88;;
30553;SDS011;17335;50.720;7.452;2022-12-18T03:21:48;25.65;;;8.82;;
30553;SDS011;17335;50.720;7.452;2022-12-18T03:24:18;32.25;;;10.63;;
30553;SDS011;17335;50.720;7.452;2022-12-18T03:26:47;30.90;;;10.70;;
30553;SDS011;17335;50.720;7.452;2022-12-18T03:29:21;23.80;;;10.13;;
30553;SDS011;17335;50.720;7.452;2022-12-18T03:32:09;30.20;;;11.95;;
30553;SDS011;17335;50.720;7.452;2022-12-18T03:34:40;27.75;;;10.52;;
30553;SDS011;17335;50.720;7.452;2022-12-18T03:37:10;33.15;;;10.73;;
30553;SDS011;17335;50.720;7.452;2022-12-18T03:39:36;29.75;;;11.25;;
30553;SDS011;17335;50.720;7.452;2022-12-18T03:42:05;21.40;;;8.70;;
30553;SDS011;17335;50.720;7.452;2022-12-18T03:50:22;24.90;;;9.70;;
30553;SDS011;17335;50.720;7.452;2022-12-18T03:55:25;23.45;;;9.95;;
30553;SDS011;17335;50.720;7.452;2022-12-18T03:57:56;28.75;;;10.32;;
30553;SDS011;17335;50.720;7.452;2022-12-18T04:00:24;32.08;;;11.55;;
30553;SDS011;17335;50.720;7.452;2022-12-18T04:02:51;29.15;;;8.95;;
30553;SDS011;17335;50.720;7.452;2022-12-18T04:05:20;29.58;;;9.75;;
30553;SDS011;17335;50.720;7.452;2022-12-18T04:07:49;23.75;;;9.15;;
30553;SDS011;17335;50.720;7.452;2022-12-18T04:10:17;20.75;;;9.80;;
30553;SDS011;17335;50.720;7.452;2022-12-18T04:12:44;26.58;;;10.88;;
30553;SDS011;17335;50.720;7.452;2022-12-18T04:15:11;28.58;;;10.05;;
30553;SDS011;17335;50.720;7.452;2022-12-18T04:17:38;29.55;;;10.20;;
30553;SDS011;17335;50.720;7.452;2022-12-18T04:20:13;22.73;;;10.15;;
30553;SDS011;17335;50.720;7.452;2022-12-18T04:22:39;26.00;;;10.15;;
30553;SDS011;17335;50.720;7.452;2022-12-18T04:25:06;29.80;;;10.65;;
30553;SDS011;17335;50.720;7.452;2022-12-18T04:27:33;23.33;;;9.90;;
30553;SDS011;17335;50.720;7.452;2022-12-18T04:29:59;28.70;;;11.27;;
30553;SDS011;17335;50.720;7.452;2022-12-18T04:32:25;28.25;;;10.60;;
30553;SDS011;17335;50.720;7.452;2022-12-18T04:34:52;26.48;;;9.80;;
30553;SDS011;17335;50.720;7.452;2022-12-18T04:37:18;22.48;;;9.43;;
30553;SDS011;17335;50.720;7.452;2022-12-18T04:39:45;26.00;;;11.05;;
30553;SDS011;17335;50.720;7.452;2022-12-18T04:42:11;20.30;;;8.73;;
30553;SDS011;17335;50.720;7.452;2022-12-18T04:44:37;32.47;;;10.07;;
30553;SDS011;17335;50.720;7.452;2022-12-18T04:47:04;26.88;;;10.63;;
30553;SDS011;17335;50.720;7.452;2022-12-18T04:49:30;28.45;;;10.52;;
30553;SDS011;17335;50.720;7.452;2022-12-18T04:51:57;33.45;;;10.95;;
30553;SDS011;17335;50.720;7.452;2022-12-18T04:54:23;27.85;;;11.77;;
30553;SDS011;17335;50.720;7.452;2022-12-18T04:56:49;30.17;;;11.27;;
30553;SDS011;17335;50.720;7.452;2022-12-18T04:59:16;29.35;;;10.68;;
30553;SDS011;17335;50.720;7.452;2022-12-18T05:01:42;32.92;;;10.90;;
30553;SDS011;17335;50.720;7.452;2022-12-18T05:04:09;24.90;;;10.55;;
30553;SDS011;17335;50.720;7.452;2022-12-18T05:06:36;27.17;;;11.27;;
30553;SDS011;17335;50.720;7.452;2022-12-18T05:09:02;30.38;;;10.30;;
30553;SDS011;17335;50.720;7.452;2022-12-18T05:11:29;25.25;;;10.75;;
30553;SDS011;17335;50.720;7.452;2022-12-18T05:13:55;24.80;;;10.23;;
30553;SDS011;17335;50.720;7.452;2022-12-18T05:16:21;28.60;;;9.88;;
30553;SDS011;17335;50.720;7.452;2022-12-18T05:18:48;25.85;;;10.00;;
30553;SDS011;17335;50.720;7.452;2022-12-18T05:21:14;23.80;;;9.95;;
30553;SDS011;17335;50.720;7.452;2022-12-18T05:23:41;27.25;;;10.75;;
30553;SDS011;17335;50.720;7.452;2022-12-18T05:26:08;27.15;;;9.32;;
30553;SDS011;17335;50.720;7.452;2022-12-18T05:28:43;28.33;;;9.60;;
30553;SDS011;17335;50.720;7.452;2022-12-18T05:31:10;24.52;;;9.63;;
30553;SDS011;17335;50.720;7.452;2022-12-18T05:33:37;20.42;;;9.18;;
30553;SDS011;17335;50.720;7.452;2022-12-18T05:36:05;26.10;;;10.57;;
30553;SDS011;17335;50.720;7.452;2022-12-18T05:38:34;23.15;;;10.50;;
30553;SDS011;17335;50.720;7.452;2022-12-18T05:41:02;22.20;;;9.50;;
30553;SDS011;17335;50.720;7.452;2022-12-18T05:43:30;22.45;;;9.25;;
30553;SDS011;17335;50.720;7.452;2022-12-18T05:45:57;23.13;;;9.35;;
30553;SDS011;17335;50.720;7.452;2022-12-18T05:48:24;25.85;;;9.35;;
30553;SDS011;17335;50.720;7.452;2022-12-18T05:50:50;22.42;;;9.55;;
30553;SDS011;17335;50.720;7.452;2022-12-18T05:53:18;21.92;;;9.15;;
30553;SDS011;17335;50.720;7.452;2022-12-18T05:55:46;23.48;;;8.55;;
30553;SDS011;17335;50.720;7.452;2022-12-18T05:58:13;22.80;;;9.55;;
30553;SDS011;17335;50.720;7.452;2022-12-18T06:00:44;22.48;;;9.35;;
30553;SDS011;17335;50.720;7.452;2022-12-18T06:03:11;24.55;;;9.48;;
30553;SDS011;17335;50.720;7.452;2022-12-18T06:05:40;18.75;;;9.02;;
30553;SDS011;17335;50.720;7.452;2022-12-18T06:08:08;20.83;;;8.60;;
30553;SDS011;17335;50.720;7.452;2022-12-18T06:10:34;24.00;;;9.00;;
30553;SDS011;17335;50.720;7.452;2022-12-18T06:13:01;20.17;;;7.57;;
30553;SDS011;17335;50.720;7.452;2022-12-18T06:15:27;15.32;;;7.40;;
30553;SDS011;17335;50.720;7.452;2022-12-18T06:17:54;19.85;;;9.02;;
30553;SDS011;17335;50.720;7.452;2022-12-18T06:20:20;29.85;;;10.18;;
30553;SDS011;17335;50.720;7.452;2022-12-18T06:22:47;25.05;;;9.18;;
30553;SDS011;17335;50.720;7.452;2022-12-18T06:25:13;21.98;;;8.40;;
30553;SDS011;17335;50.720;7.452;2022-12-18T06:27:39;22.73;;;8.85;;
30553;SDS011;17335;50.720;7.452;2022-12-18T06:30:07;18.00;;;7.55;;
30553;SDS011;17335;50.720;7.452;2022-12-18T06:32:34;24.08;;;9.07;;
30553;SDS011;17335;50.720;7.452;2022-12-18T06:35:00;21.98;;;9.65;;
30553;SDS011;17335;50.720;7.452;2022-12-18T06:37:27;23.25;;;9.93;;
30553;SDS011;17335;50.720;7.452;2022-12-18T06:39:54;23.80;;;9.30;;
30553;SDS011;17335;50.720;7.452;2022-12-18T06:42:22;23.13;;;9.77;;
30553;SDS011;17335;50.720;7.452;2022-12-18T06:44:48;20.73;;;8.82;;
30553;SDS011;17335;50.720;7.452;2022-12-18T06:47:15;24.90;;;9.15;;
30553;SDS011;17335;50.720;7.452;2022-12-18T06:49:41;30.63;;;8.98;;
30553;SDS011;17335;50.720;7.452;2022-12-18T06:52:09;23.25;;;9.63;;
30553;SDS011;17335;50.720;7.452;2022-12-18T06:54:35;24.48;;;9.23;;
30553;SDS011;17335;50.720;7.452;2022-12-18T06:57:02;23.77;;;9.25;;
30553;SDS011;17335;50.720;7.452;2022-12-18T06:59:28;23.42;;;8.52;;
30553;SDS011;17335;50.720;7.452;2022-12-18T07:01:55;21.58;;;8.27;;
30553;SDS011;17335;50.720;7.452;2022-12-18T07:04:27;19.40;;;8.70;;
30553;SDS011;17335;50.720;7.452;2022-12-18T07:06:55;19.33;;;9.13;;
30553;SDS011;17335;50.720;7.452;2022-12-18T07:09:21;23.58;;;8.55;;
30553;SDS011;17335;50.720;7.452;2022-12-18T07:11:47;33.25;;;9.63;;
30553;SDS011;17335;50.720;7.452;2022-12-18T07:14:14;27.10;;;9.68;;
30553;SDS011;17335;50.720;7.452;2022-12-18T07:16:40;22.17;;;8.13;;
30553;SDS011;17335;50.720;7.452;2022-12-18T07:19:07;25.42;;;10.00;;
30553;SDS011;17335;50.720;7.452;2022-12-18T07:21:33;18.35;;;8.35;;
30553;SDS011;17335;50.720;7.452;2022-12-18T07:23:59;18.92;;;7.97;;
30553;SDS011;17335;50.720;7.452;2022-12-18T07:26:26;21.65;;;8.18;;
30553;SDS011;17335;50.720;7.452;2022-12-18T07:28:54;24.10;;;8.38;;
30553;SDS011;17335;50.720;7.452;2022-12-18T07:31:22;26.67;;;9.40;;
30553;SDS011;17335;50.720;7.452;2022-12-18T07:33:49;26.95;;;10.23;;
30553;SDS011;17335;50.720;7.452;2022-12-18T07:36:16;25.83;;;9.48;;
30553;SDS011;17335;50.720;7.452;2022-12-18T07:38:44;21.27;;;8.48;;
30553;SDS011;17335;50.720;7.452;2022-12-18T07:41:13;24.77;;;9.45;;
30553;SDS011;17335;50.720;7.452;2022-12-18T07:43:40;21.80;;;8.65;;
30553;SDS011;17335;50.720;7.452;2022-12-18T07:46:08;21.85;;;8.73;;
30553;SDS011;17335;50.720;7.452;2022-12-18T07:48:35;23.73;;;10.27;;
30553;SDS011;17335;50.720;7.452;2022-12-18T07:51:02;22.90;;;8.15;;
30553;SDS011;17335;50.720;7.452;2022-12-18T07:53:31;23.67;;;10.15;;
30553;SDS011;17335;50.720;7.452;2022-12-18T07:56:02;20.88;;;8.13;;
30553;SDS011;17335;50.720;7.452;2022-12-18T07:58:51;25.65;;;8.43;;
30553;SDS011;17335;50.720;7.452;2022-12-18T08:01:17;22.77;;;7.97;;
30553;SDS011;17335;50.720;7.452;2022-12-18T08:03:46;25.48;;;9.85;;
30553;SDS011;17335;50.720;7.452;2022-12-18T08:06:13;23.38;;;8.35;;
30553;SDS011;17335;50.720;7.452;2022-12-18T08:08:39;25.40;;;9.63;;
30553;SDS011;17335;50.720;7.452;2022-12-18T08:11:07;30.05;;;9.88;;
30553;SDS011;17335;50.720;7.452;2022-12-18T08:13:33;19.77;;;9.13;;
30553;SDS011;17335;50.720;7.452;2022-12-18T08:16:01;25.33;;;9.95;;
30553;SDS011;17335;50.720;7.452;2022-12-18T08:18:32;24.13;;;8.48;;
30553;SDS011;17335;50.720;7.452;2022-12-18T08:21:07;24.92;;;8.65;;
30553;SDS011;17335;50.720;7.452;2022-12-18T08:23:34;21.55;;;8.93;;
30553;SDS011;17335;50.720;7.452;2022-12-18T08:26:07;34.72;;;11.40;;
30553;SDS011;17335;50.720;7.452;2022-12-18T08:28:34;21.55;;;10.05;;
30553;SDS011;17335;50.720;7.452;2022-12-18T08:31:00;18.63;;;7.93;;
30553;SDS011;17335;50.720;7.452;2022-12-18T08:33:26;20.20;;;8.95;;
30553;SDS011;17335;50.720;7.452;2022-12-18T08:35:53;24.92;;;10.75;;
30553;SDS011;17335;50.720;7.452;2022-12-18T08:38:19;27.15;;;10.02;;
30553;SDS011;17335;50.720;7.452;2022-12-18T08:40:46;25.13;;;8.60;;
30553;SDS011;17335;50.720;7.452;2022-12-18T08:43:12;21.83;;;8.38;;
30553;SDS011;17335;50.720;7.452;2022-12-18T08:45:57;24.77;;;8.55;;
30553;SDS011;17335;50.720;7.452;2022-12-18T08:48:24;24.55;;;9.23;;
30553;SDS011;17335;50.720;7.452;2022-12-18T08:50:57;29.10;;;9.48;;
30553;SDS011;17335;50.720;7.452;2022-12-18T08:53:25;21.60;;;9.40;;
30553;SDS011;17335;50.720;7.452;2022-12-18T08:55:59;25.33;;;8.80;;
30553;SDS011;17335;50.720;7.452;2022-12-18T08:58:25;22.98;;;10.07;;
30553;SDS011;17335;50.720;7.452;2022-12-18T09:00:51;25.63;;;9.60;;
30553;SDS011;17335;50.720;7.452;2022-12-18T09:03:18;33.80;;;10.80;;
30553;SDS011;17335;50.720;7.452;2022-12-18T09:05:45;24.45;;;9.70;;
30553;SDS011;17335;50.720;7.452;2022-12-18T09:08:12;25.35;;;10.05;;
30553;SDS011;17335;50.720;7.452;2022-12-18T09:10:44;26.40;;;11.60;;
30553;SDS011;17335;50.720;7.452;2022-12-18T09:13:14;22.55;;;9.82;;
30553;SDS011;17335;50.720;7.452;2022-12-18T09:15:42;32.10;;;11.65;;
30553;SDS011;17335;50.720;7.452;2022-12-18T09:18:09;23.85;;;10.10;;
30553;SDS011;17335;50.720;7.452;2022-12-18T09:20:36;33.63;;;10.80;;
30553;SDS011;17335;50.720;7.452;2022-12-18T09:23:03;22.67;;;9.30;;
30553;SDS011;17335;50.720;7.452;2022-12-18T09:25:31;19.80;;;8.93;;
30553;SDS011;17335;50.720;7.452;2022-12-18T09:28:04;22.92;;;9.43;;
30553;SDS011;17335;50.720;7.452;2022-12-18T09:30:32;30.02;;;11.13;;
30553;SDS011;17335;50.720;7.452;2022-12-18T09:33:00;21.45;;;9.90;;
30553;SDS011;17335;50.720;7.452;2022-12-18T09:35:27;26.52;;;11.13;;
30553;SDS011;17335;50.720;7.452;2022-12-18T09:37:54;31.98;;;11.10;;
30553;SDS011;17335;50.720;7.452;2022-12-18T09:40:22;25.70;;;10.65;;
30553;SDS011;17335;50.720;7.452;2022-12-18T09:42:53;24.20;;;10.05;;
30553;SDS011;17335;50.720;7.452;2022-12-18T09:45:23;19.45;;;9.68;;
30553;SDS011;17335;50.720;7.452;2022-12-18T09:47:50;25.27;;;9.63;;
30553;SDS011;17335;50.720;7.452;2022-12-18T09:50:28;20.25;;;8.70;;
30553;SDS011;17335;50.720;7.452;2022-12-18T09:52:59;25.50;;;8.75;;
30553;SDS011;17335;50.720;7.452;2022-12-18T09:55:39;24.17;;;9.05;;
30553;SDS011;17335;50.720;7.452;2022-12-18T09:58:16;25.55;;;9.73;;
30553;SDS011;17335;50.720;7.452;2022-12-18T10:00:51;26.58;;;9.32;;
30553;SDS011;17335;50.720;7.452;2022-12-18T10:03:18;20.63;;;9.43;;
30553;SDS011;17335;50.720;7.452;2022-12-18T10:11:03;28.02;;;11.30;;
30553;SDS011;17335;50.720;7.452;2022-12-18T10:13:49;21.20;;;8.45;;
30553;SDS011;17335;50.720;7.452;2022-12-18T10:21:55;27.17;;;10.48;;
30553;SDS011;17335;50.720;7.452;2022-12-18T10:27:22;21.92;;;8.98;;
30553;SDS011;17335;50.720;7.452;2022-12-18T10:29:51;22.88;;;9.50;;
30553;SDS011;17335;50.720;7.452;2022-12-18T10:32:20;20.63;;;8.68;;
30553;SDS011;17335;50.720;7.452;2022-12-18T10:34:52;27.67;;;9.50;;
30553;SDS011;17335;50.720;7.452;2022-12-18T10:37:26;25.48;;;9.63;;
30553;SDS011;17335;50.720;7.452;2022-12-18T10:40:15;21.15;;;9.07;;
30553;SDS011;17335;50.720;7.452;2022-12-18T10:43:01;25.95;;;9.60;;
30553;SDS011;17335;50.720;7.452;2022-12-18T10:45:29;25.55;;;9.70;;
30553;SDS011;17335;50.720;7.452;2022-12-18T10:47:56;24.45;;;9.50;;
30553;SDS011;17335;50.720;7.452;2022-12-18T10:53:24;22.90;;;9.40;;
30553;SDS011;17335;50.720;7.452;2022-12-18T10:55:54;24.75;;;10.27;;
30553;SDS011;17335;50.720;7.452;2022-12-18T10:58:25;21.70;;;8.43;;
30553;SDS011;17335;50.720;7.452;2022-12-18T11:01:13;20.42;;;9.20;;
30553;SDS011;17335;50.720;7.452;2022-12-18T11:03:58;24.52;;;9.98;;
30553;SDS011;17335;50.720;7.452;2022-12-18T11:06:28;19.63;;;8.80;;
30553;SDS011;17335;50.720;7.452;2022-12-18T11:09:03;24.80;;;9.88;;
30553;SDS011;17335;50.720;7.452;2022-12-18T11:11:40;22.63;;;10.40;;
30553;SDS011;17335;50.720;7.452;2022-12-18T11:14:12;26.15;;;10.48;;
30553;SDS011;17335;50.720;7.452;2022-12-18T11:16:46;27.50;;;9.73;;
30553;SDS011;17335;50.720;7.452;2022-12-18T11:19:35;22.65;;;9.93;;
30553;SDS011;17335;50.720;7.452;2022-12-18T11:22:04;29.13;;;11.10;;
30553;SDS011;17335;50.720;7.452;2022-12-18T11:24:53;29.52;;;9.60;;
30553;SDS011;17335;50.720;7.452;2022-12-18T11:27:56;22.77;;;9.70;;
30553;SDS011;17335;50.720;7.452;2022-12-18T11:30:26;26.58;;;10.02;;
30553;SDS011;17335;50.720;7.452;2022-12-18T11:35:44;30.13;;;10.77;;
30553;SDS011;17335;50.720;7.452;2022-12-18T11:41:39;24.20;;;10.75;;
30553;SDS011;17335;50.720;7.452;2022-12-18T11:44:13;21.88;;;10.00;;
30553;SDS011;17335;50.720;7.452;2022-12-18T11:46:49;23.25;;;9.95;;
30553;SDS011;17335;50.720;7.452;2022-12-18T11:49:28;33.88;;;11.00;;
30553;SDS011;17335;50.720;7.452;2022-12-18T11:54:41;28.50;;;11.32;;
30553;SDS011;17335;50.720;7.452;2022-12-18T12:11:50;31.73;;;11.13;;
30553;SDS011;17335;50.720;7.452;2022-12-18T12:17:43;26.80;;;10.70;;
30553;SDS011;17335;50.720;7.452;2022-12-18T12:26:05;25.60;;;12.48;;
30553;SDS011;17335;50.720;7.452;2022-12-18T12:28:55;28.60;;;12.40;;
30553;SDS011;17335;50.720;7.452;2022-12-18T12:34:29;36.30;;;11.32;;
30553;SDS011;17335;50.720;7.452;2022-12-18T12:39:45;31.70;;;12.85;;
30553;SDS011;17335;50.720;7.452;2022-12-18T12:45:26;34.95;;;13.68;;
30553;SDS011;17335;50.720;7.452;2022-12-18T12:47:59;32.78;;;12.80;;
30553;SDS011;17335;50.720;7.452;2022-12-18T12:50:29;24.63;;;11.88;;
30553;SDS011;17335;50.720;7.452;2022-12-18T12:53:00;32.08;;;12.70;;
30553;SDS011;17335;50.720;7.452;2022-12-18T12:55:32;29.90;;;12.38;;
30553;SDS011;17335;50.720;7.452;2022-12-18T13:00:37;32.15;;;14.48;;
30553;SDS011;17335;50.720;7.452;2022-12-18T13:05:54;31.77;;;12.93;;
30553;SDS011;17335;50.720;7.452;2022-12-18T13:08:32;34.47;;;14.02;;
30553;SDS011;17335;50.720;7.452;2022-12-18T13:11:29;36.35;;;13.50;;
30553;SDS011;17335;50.720;7.452;2022-12-18T13:14:34;32.72;;;13.95;;
30553;SDS011;17335;50.720;7.452;2022-12-18T13:19:41;25.13;;;11.90;;
30553;SDS011;17335;50.720;7.452;2022-12-18T13:25:33;34.50;;;14.35;;
30553;SDS011;17335;50.720;7.452;2022-12-18T13:33:34;37.97;;;15.00;;
30553;SDS011;17335;50.720;7.452;2022-12-18T13:35:51;34.05;;;12.32;;
30553;SDS011;17335;50.720;7.452;2022-12-18T13:41:04;36.90;;;13.13;;
30553;SDS011;17335;50.720;7.452;2022-12-18T13:43:50;32.22;;;13.82;;
30553;SDS011;17335;50.720;7.452;2022-12-18T13:49:00;34.33;;;13.95;;
30553;SDS011;17335;50.720;7.452;2022-12-18T13:51:54;37.35;;;11.98;;
30553;SDS011;17335;50.720;7.452;2022-12-18T13:54:35;32.83;;;13.77;;
30553;SDS011;17335;50.720;7.452;2022-12-18T13:57:05;32.50;;;13.38;;
30553;SDS011;17335;50.720;7.452;2022-12-18T13:59:55;31.25;;;13.65;;
30553;SDS011;17335;50.720;7.452;2022-12-18T14:02:24;36.80;;;13.90;;
30553;SDS011;17335;50.720;7.452;2022-12-18T14:04:53;34.25;;;13.55;;
30553;SDS011;17335;50.720;7.452;2022-12-18T14:07:27;33.28;;;13.75;;
30553;SDS011;17335;50.720;7.452;2022-12-18T14:10:01;31.83;;;13.05;;
30553;SDS011;17335;50.720;7.452;2022-12-18T14:12:49;35.72;;;13.68;;
30553;SDS011;17335;50.720;7.452;2022-12-18T14:20:46;34.30;;;14.35;;
30553;SDS011;17335;50.720;7.452;2022-12-18T14:23:25;33.63;;;13.80;;
30553;SDS011;17335;50.720;7.452;2022-12-18T14:25:54;33.88;;;14.40;;
30553;SDS011;17335;50.720;7.452;2022-12-18T14:28:22;34.25;;;13.50;;
30553;SDS011;17335;50.720;7.452;2022-12-18T14:30:49;35.72;;;14.90;;
30553;SDS011;17335;50.720;7.452;2022-12-18T14:33:18;29.33;;;12.65;;
30553;SDS011;17335;50.720;7.452;2022-12-18T14:38:31;32.28;;;14.80;;
30553;SDS011;17335;50.720;7.452;2022-12-18T14:43:39;40.75;;;15.85;;
30553;SDS011;17335;50.720;7.452;2022-12-18T14:48:56;35.53;;;14.77;;
30553;SDS011;17335;50.720;7.452;2022-12-18T14:51:24;48.95;;;16.92;;
30553;SDS011;17335;50.720;7.452;2022-12-18T14:53:54;34.92;;;15.15;;
30553;SDS011;17335;50.720;7.452;2022-12-18T14:56:32;37.50;;;15.50;;
30553;SDS011;17335;50.720;7.452;2022-12-18T14:59:02;36.40;;;15.82;;
30553;SDS011;17335;50.720;7.452;2022-12-18T15:04:23;40.80;;;16.38;;
30553;SDS011;17335;50.720;7.452;2022-12-18T15:09:43;35.60;;;15.07;;
30553;SDS011;17335;50.720;7.452;2022-12-18T15:12:28;35.72;;;15.43;;
30553;SDS011;17335;50.720;7.452;2022-12-18T15:14:59;42.67;;;16.90;;
30553;SDS011;17335;50.720;7.452;2022-12-18T15:17:26;35.40;;;15.43;;
30553;SDS011;17335;50.720;7.452;2022-12-18T15:19:57;38.75;;;16.70;;
30553;SDS011;17335;50.720;7.452;2022-12-18T15:22:27;68.45;;;22.90;;
30553;SDS011;17335;50.720;7.452;2022-12-18T15:24:56;42.45;;;17.25;;
30553;SDS011;17335;50.720;7.452;2022-12-18T15:27:33;44.42;;;17.00;;
30553;SDS011;17335;50.720;7.452;2022-12-18T15:32:32;40.55;;;16.42;;
30553;SDS011;17335;50.720;7.452;2022-12-18T15:35:17;43.97;;;16.38;;
30553;SDS011;17335;50.720;7.452;2022-12-18T15:37:48;41.38;;;15.70;;
30553;SDS011;17335;50.720;7.452;2022-12-18T15:40:17;43.53;;;15.95;;
30553;SDS011;17335;50.720;7.452;2022-12-18T15:42:45;42.40;;;17.83;;
30553;SDS011;17335;50.720;7.452;2022-12-18T15:45:32;40.22;;;17.27;;
30553;SDS011;17335;50.720;7.452;2022-12-18T15:47:58;47.75;;;17.95;;
30553;SDS011;17335;50.720;7.452;2022-12-18T15:50:25;37.00;;;15.07;;
30553;SDS011;17335;50.720;7.452;2022-12-18T15:52:53;40.80;;;15.15;;
30553;SDS011;17335;50.720;7.452;2022-12-18T15:55:22;51.78;;;17.60;;
30553;SDS011;17335;50.720;7.452;2022-12-18T15:58:09;38.80;;;15.13;;
30553;SDS011;17335;50.720;7.452;2022-12-18T16:00:38;44.17;;;16.17;;
30553;SDS011;17335;50.720;7.452;2022-12-18T16:03:06;29.65;;;12.77;;
30553;SDS011;17335;50.720;7.452;2022-12-18T16:05:33;43.15;;;15.63;;
30553;SDS011;17335;50.720;7.452;2022-12-18T16:08:00;47.55;;;15.52;;
30553;SDS011;17335;50.720;7.452;2022-12-18T16:10:26;46.30;;;17.58;;
30553;SDS011;17335;50.720;7.452;2022-12-18T16:12:53;51.35;;;18.20;;
30553;SDS011;17335;50.720;7.452;2022-12-18T16:15:19;48.78;;;16.58;;
30553;SDS011;17335;50.720;7.452;2022-12-18T16:17:50;53.08;;;17.00;;
30553;SDS011;17335;50.720;7.452;2022-12-18T16:20:19;51.70;;;17.92;;
30553;SDS011;17335;50.720;7.452;2022-12-18T16:22:47;50.35;;;15.95;;
30553;SDS011;17335;50.720;7.452;2022-12-18T16:27:49;33.63;;;14.48;;
30553;SDS011;17335;50.720;7.452;2022-12-18T16:30:18;38.33;;;15.20;;
30553;SDS011;17335;50.720;7.452;2022-12-18T16:32:47;47.63;;;19.30;;
30553;SDS011;17335;50.720;7.452;2022-12-18T16:35:14;40.72;;;16.30;;
30553;SDS011;17335;50.720;7.452;2022-12-18T16:37:44;56.15;;;21.17;;
30553;SDS011;17335;50.720;7.452;2022-12-18T16:40:12;54.28;;;20.10;;
30553;SDS011;17335;50.720;7.452;2022-12-18T16:42:40;56.90;;;19.85;;
30553;SDS011;17335;50.720;7.452;2022-12-18T16:45:09;50.97;;;19.63;;
30553;SDS011;17335;50.720;7.452;2022-12-18T16:47:41;45.88;;;17.48;;
30553;SDS011;17335;50.720;7.452;2022-12-18T16:50:08;57.00;;;21.63;;
30553;SDS011;17335;50.720;7.452;2022-12-18T16:52:35;46.67;;;16.90;;
30553;SDS011;17335;50.720;7.452;2022-12-18T16:55:02;38.50;;;14.90;;
30553;SDS011;17335;50.720;7.452;2022-12-18T16:57:34;49.28;;;18.33;;
30553;SDS011;17335;50.720;7.452;2022-12-18T17:00:01;45.40;;;17.67;;
30553;SDS011;17335;50.720;7.452;2022-12-18T17:02:31;60.85;;;19.40;;
30553;SDS011;17335;50.720;7.452;2022-12-18T17:04:58;56.25;;;21.75;;
30553;SDS011;17335;50.720;7.452;2022-12-18T17:07:25;42.28;;;16.83;;